sensor_id;sensor_type;location;lat;lon;timestamp;P1;durP1;ratioP1;P2;durP2;ratioP2
57389;SDS011;43217;52.694;6.214;2023-08-07T00:00:22;7.07;;;4.32;;
57389;SDS011;43217;52.694;6.214;2023-08-07T00:02:48;5.20;;;3.70;;
57389;SDS011;43217;52.694;6.214;2023-08-07T00:05:14;8.27;;;4.03;;
57389;SDS011;43217;52.694;6.214;2023-08-07T00:07:41;6.05;;;3.17;;
57389;SDS011;43217;52.694;6.214;2023-08-07T00:10:07;12.73;;;4.35;;
57389;SDS011;43217;52.694;6.214;2023-08-07T00:12:33;5.30;;;3.17;;
57389;SDS011;43217;52.694;6.214;2023-08-07T00:14:59;5.30;;;3.20;;
57389;SDS011;43217;52.694;6.214;2023-08-07T00:17:25;6.43;;;3.50;;
57389;SDS011;43217;52.694;6.214;2023-08-07T00:19:51;5.68;;;3.53;;
57389;SDS011;43217;52.694;6.214;2023-08-07T00:22:17;6.82;;;3.75;;
57389;SDS011;43217;52.694;6.214;2023-08-07T00:24:42;5.95;;;3.50;;
57389;SDS011;43217;52.694;6.214;2023-08-07T00:27:08;11.68;;;4.05;;
57389;SDS011;43217;52.694;6.214;2023-08-07T00:29:35;11.68;;;4.22;;
57389;SDS011;43217;52.694;6.214;2023-08-07T00:32:02;10.68;;;3.17;;
57389;SDS011;43217;52.694;6.214;2023-08-07T00:34:29;10.02;;;3.28;;
57389;SDS011;43217;52.694;6.214;2023-08-07T00:36:54;11.33;;;3.77;;
57389;SDS011;43217;52.694;6.214;2023-08-07T00:39:20;7.03;;;3.45;;
57389;SDS011;43217;52.694;6.214;2023-08-07T00:41:46;11.85;;;3.35;;
57389;SDS011;43217;52.694;6.214;2023-08-07T00:44:12;13.18;;;3.60;;
57389;SDS011;43217;52.694;6.214;2023-08-07T00:46:38;12.43;;;3.88;;
57389;SDS011;43217;52.694;6.214;2023-08-07T00:49:06;12.88;;;3.40;;
57389;SDS011;43217;52.694;6.214;2023-08-07T00:51:34;12.55;;;3.45;;
57389;SDS011;43217;52.694;6.214;2023-08-07T00:54:01;10.30;;;4.03;;
57389;SDS011;43217;52.694;6.214;2023-08-07T00:56:29;12.85;;;4.00;;
57389;SDS011;43217;52.694;6.214;2023-08-07T00:58:56;9.70;;;3.72;;
57389;SDS011;43217;52.694;6.214;2023-08-07T01:01:23;8.68;;;3.70;;
57389;SDS011;43217;52.694;6.214;2023-08-07T01:03:49;7.35;;;3.60;;
57389;SDS011;43217;52.694;6.214;2023-08-07T01:06:15;9.02;;;3.90;;
57389;SDS011;43217;52.694;6.214;2023-08-07T01:08:40;8.07;;;4.18;;
57389;SDS011;43217;52.694;6.214;2023-08-07T01:14:13;6.50;;;3.63;;
57389;SDS011;43217;52.694;6.214;2023-08-07T01:19:34;8.80;;;3.83;;
57389;SDS011;43217;52.694;6.214;2023-08-07T01:22:05;7.35;;;3.35;;
57389;SDS011;43217;52.694;6.214;2023-08-07T01:24:35;6.72;;;3.40;;
57389;SDS011;43217;52.694;6.214;2023-08-07T01:27:07;7.88;;;3.00;;
57389;SDS011;43217;52.694;6.214;2023-08-07T01:35:14;8.85;;;3.08;;
57389;SDS011;43217;52.694;6.214;2023-08-07T01:37:42;10.23;;;2.90;;
57389;SDS011;43217;52.694;6.214;2023-08-07T01:40:10;7.30;;;2.40;;
57389;SDS011;43217;52.694;6.214;2023-08-07T01:42:38;6.10;;;2.58;;
57389;SDS011;43217;52.694;6.214;2023-08-07T01:45:04;8.40;;;2.17;;
57389;SDS011;43217;52.694;6.214;2023-08-07T01:47:31;9.40;;;2.40;;
57389;SDS011;43217;52.694;6.214;2023-08-07T01:49:56;7.28;;;2.13;;
57389;SDS011;43217;52.694;6.214;2023-08-07T01:52:24;8.00;;;2.30;;
57389;SDS011;43217;52.694;6.214;2023-08-07T01:54:50;9.95;;;2.60;;
57389;SDS011;43217;52.694;6.214;2023-08-07T01:57:15;7.63;;;2.25;;
57389;SDS011;43217;52.694;6.214;2023-08-07T01:59:42;5.53;;;2.07;;
57389;SDS011;43217;52.694;6.214;2023-08-07T02:02:09;7.95;;;2.13;;
57389;SDS011;43217;52.694;6.214;2023-08-07T02:04:37;6.32;;;2.55;;
57389;SDS011;43217;52.694;6.214;2023-08-07T02:07:03;5.95;;;1.98;;
57389;SDS011;43217;52.694;6.214;2023-08-07T02:09:34;4.75;;;1.70;;
57389;SDS011;43217;52.694;6.214;2023-08-07T02:11:59;5.55;;;2.05;;
57389;SDS011;43217;52.694;6.214;2023-08-07T02:14:26;6.30;;;1.70;;
57389;SDS011;43217;52.694;6.214;2023-08-07T02:16:52;8.15;;;1.73;;
57389;SDS011;43217;52.694;6.214;2023-08-07T02:19:17;5.35;;;2.05;;
57389;SDS011;43217;52.694;6.214;2023-08-07T02:21:43;6.82;;;2.38;;
57389;SDS011;43217;52.694;6.214;2023-08-07T02:24:08;5.10;;;1.80;;
57389;SDS011;43217;52.694;6.214;2023-08-07T02:26:34;5.10;;;1.58;;
57389;SDS011;43217;52.694;6.214;2023-08-07T02:29:00;8.07;;;2.10;;
57389;SDS011;43217;52.694;6.214;2023-08-07T02:31:25;4.82;;;1.90;;
57389;SDS011;43217;52.694;6.214;2023-08-07T02:33:51;7.47;;;2.53;;
57389;SDS011;43217;52.694;6.214;2023-08-07T02:36:17;7.28;;;2.22;;
57389;SDS011;43217;52.694;6.214;2023-08-07T02:38:42;7.03;;;1.98;;
57389;SDS011;43217;52.694;6.214;2023-08-07T02:41:08;4.38;;;1.90;;
57389;SDS011;43217;52.694;6.214;2023-08-07T02:43:33;5.47;;;2.03;;
57389;SDS011;43217;52.694;6.214;2023-08-07T02:45:59;9.80;;;2.17;;
57389;SDS011;43217;52.694;6.214;2023-08-07T02:48:25;3.53;;;1.70;;
57389;SDS011;43217;52.694;6.214;2023-08-07T02:50:50;4.75;;;2.00;;
57389;SDS011;43217;52.694;6.214;2023-08-07T02:53:19;7.30;;;2.40;;
57389;SDS011;43217;52.694;6.214;2023-08-07T02:55:44;6.50;;;2.38;;
57389;SDS011;43217;52.694;6.214;2023-08-07T02:58:10;7.57;;;2.58;;
57389;SDS011;43217;52.694;6.214;2023-08-07T03:00:36;7.45;;;2.10;;
57389;SDS011;43217;52.694;6.214;2023-08-07T03:03:01;7.15;;;2.35;;
57389;SDS011;43217;52.694;6.214;2023-08-07T03:05:27;8.25;;;2.92;;
57389;SDS011;43217;52.694;6.214;2023-08-07T03:07:52;5.13;;;2.40;;
57389;SDS011;43217;52.694;6.214;2023-08-07T03:10:18;8.20;;;2.85;;
57389;SDS011;43217;52.694;6.214;2023-08-07T03:12:44;6.10;;;2.30;;
57389;SDS011;43217;52.694;6.214;2023-08-07T03:15:10;5.60;;;2.28;;
57389;SDS011;43217;52.694;6.214;2023-08-07T03:17:36;8.82;;;2.53;;
57389;SDS011;43217;52.694;6.214;2023-08-07T03:20:01;10.80;;;2.92;;
57389;SDS011;43217;52.694;6.214;2023-08-07T03:22:35;11.27;;;2.88;;
57389;SDS011;43217;52.694;6.214;2023-08-07T03:25:00;7.32;;;2.72;;
57389;SDS011;43217;52.694;6.214;2023-08-07T03:27:26;9.68;;;3.55;;
57389;SDS011;43217;52.694;6.214;2023-08-07T03:29:53;7.00;;;2.80;;
57389;SDS011;43217;52.694;6.214;2023-08-07T03:32:18;10.23;;;3.50;;
57389;SDS011;43217;52.694;6.214;2023-08-07T03:34:44;9.85;;;2.95;;
57389;SDS011;43217;52.694;6.214;2023-08-07T03:37:10;8.77;;;2.72;;
57389;SDS011;43217;52.694;6.214;2023-08-07T03:39:36;9.65;;;3.90;;
57389;SDS011;43217;52.694;6.214;2023-08-07T03:42:01;12.63;;;3.65;;
57389;SDS011;43217;52.694;6.214;2023-08-07T03:44:27;10.02;;;3.75;;
57389;SDS011;43217;52.694;6.214;2023-08-07T03:46:53;8.20;;;3.28;;
57389;SDS011;43217;52.694;6.214;2023-08-07T03:49:21;11.40;;;3.60;;
57389;SDS011;43217;52.694;6.214;2023-08-07T03:51:54;12.50;;;3.33;;
57389;SDS011;43217;52.694;6.214;2023-08-07T03:54:19;9.38;;;3.47;;
57389;SDS011;43217;52.694;6.214;2023-08-07T03:56:45;8.75;;;2.92;;
57389;SDS011;43217;52.694;6.214;2023-08-07T03:59:12;6.82;;;3.17;;
57389;SDS011;43217;52.694;6.214;2023-08-07T04:01:37;5.88;;;2.58;;
57389;SDS011;43217;52.694;6.214;2023-08-07T04:04:03;8.40;;;2.83;;
57389;SDS011;43217;52.694;6.214;2023-08-07T04:06:28;7.05;;;2.67;;
57389;SDS011;43217;52.694;6.214;2023-08-07T04:08:54;5.40;;;2.53;;
57389;SDS011;43217;52.694;6.214;2023-08-07T04:11:20;5.32;;;2.70;;
57389;SDS011;43217;52.694;6.214;2023-08-07T04:13:45;5.63;;;2.67;;
57389;SDS011;43217;52.694;6.214;2023-08-07T04:16:11;5.10;;;2.70;;
57389;SDS011;43217;52.694;6.214;2023-08-07T04:18:36;8.80;;;2.80;;
57389;SDS011;43217;52.694;6.214;2023-08-07T04:21:02;7.97;;;2.80;;
57389;SDS011;43217;52.694;6.214;2023-08-07T04:23:28;5.70;;;3.17;;
57389;SDS011;43217;52.694;6.214;2023-08-07T04:25:54;7.50;;;3.55;;
57389;SDS011;43217;52.694;6.214;2023-08-07T04:28:20;8.40;;;3.20;;
57389;SDS011;43217;52.694;6.214;2023-08-07T04:30:48;8.25;;;4.20;;
57389;SDS011;43217;52.694;6.214;2023-08-07T04:33:15;8.40;;;3.80;;
57389;SDS011;43217;52.694;6.214;2023-08-07T04:35:41;8.98;;;3.55;;
57389;SDS011;43217;52.694;6.214;2023-08-07T04:38:07;6.97;;;3.50;;
57389;SDS011;43217;52.694;6.214;2023-08-07T04:40:33;9.02;;;4.30;;
57389;SDS011;43217;52.694;6.214;2023-08-07T04:42:59;7.78;;;3.65;;
57389;SDS011;43217;52.694;6.214;2023-08-07T04:45:24;9.73;;;3.80;;
57389;SDS011;43217;52.694;6.214;2023-08-07T04:47:50;11.82;;;4.05;;
57389;SDS011;43217;52.694;6.214;2023-08-07T04:50:16;11.02;;;3.95;;
57389;SDS011;43217;52.694;6.214;2023-08-07T04:52:42;9.13;;;4.03;;
57389;SDS011;43217;52.694;6.214;2023-08-07T04:55:08;10.50;;;4.10;;
57389;SDS011;43217;52.694;6.214;2023-08-07T04:57:33;13.93;;;3.92;;
57389;SDS011;43217;52.694;6.214;2023-08-07T04:59:59;13.55;;;4.38;;
57389;SDS011;43217;52.694;6.214;2023-08-07T05:02:25;12.07;;;4.00;;
57389;SDS011;43217;52.694;6.214;2023-08-07T05:04:50;11.63;;;4.45;;
57389;SDS011;43217;52.694;6.214;2023-08-07T05:07:16;6.75;;;3.38;;
57389;SDS011;43217;52.694;6.214;2023-08-07T05:09:42;9.25;;;3.70;;
57389;SDS011;43217;52.694;6.214;2023-08-07T05:12:08;7.65;;;3.30;;
57389;SDS011;43217;52.694;6.214;2023-08-07T05:14:34;8.65;;;3.20;;
57389;SDS011;43217;52.694;6.214;2023-08-07T05:16:59;7.95;;;3.53;;
57389;SDS011;43217;52.694;6.214;2023-08-07T05:19:25;7.45;;;3.85;;
57389;SDS011;43217;52.694;6.214;2023-08-07T05:21:51;11.50;;;3.40;;
57389;SDS011;43217;52.694;6.214;2023-08-07T05:24:17;9.88;;;3.72;;
57389;SDS011;43217;52.694;6.214;2023-08-07T05:26:43;6.25;;;2.85;;
57389;SDS011;43217;52.694;6.214;2023-08-07T05:29:08;10.73;;;3.75;;
57389;SDS011;43217;52.694;6.214;2023-08-07T05:31:34;7.72;;;3.45;;
57389;SDS011;43217;52.694;6.214;2023-08-07T05:34:01;13.38;;;4.13;;
57389;SDS011;43217;52.694;6.214;2023-08-07T05:36:27;10.68;;;3.90;;
57389;SDS011;43217;52.694;6.214;2023-08-07T05:38:53;8.98;;;3.65;;
57389;SDS011;43217;52.694;6.214;2023-08-07T05:41:19;9.13;;;3.70;;
57389;SDS011;43217;52.694;6.214;2023-08-07T05:43:45;12.63;;;4.22;;
57389;SDS011;43217;52.694;6.214;2023-08-07T05:46:11;6.72;;;3.70;;
57389;SDS011;43217;52.694;6.214;2023-08-07T05:48:40;7.93;;;3.13;;
57389;SDS011;43217;52.694;6.214;2023-08-07T05:51:05;10.57;;;3.55;;
57389;SDS011;43217;52.694;6.214;2023-08-07T05:53:32;8.95;;;3.35;;
57389;SDS011;43217;52.694;6.214;2023-08-07T05:55:58;8.55;;;3.45;;
57389;SDS011;43217;52.694;6.214;2023-08-07T05:58:24;11.32;;;3.80;;
57389;SDS011;43217;52.694;6.214;2023-08-07T06:00:50;11.77;;;4.63;;
57389;SDS011;43217;52.694;6.214;2023-08-07T06:03:15;7.68;;;3.10;;
57389;SDS011;43217;52.694;6.214;2023-08-07T06:05:41;13.57;;;3.88;;
57389;SDS011;43217;52.694;6.214;2023-08-07T06:08:07;8.63;;;4.05;;
57389;SDS011;43217;52.694;6.214;2023-08-07T06:10:33;9.55;;;4.10;;
57389;SDS011;43217;52.694;6.214;2023-08-07T06:12:59;10.85;;;4.40;;
57389;SDS011;43217;52.694;6.214;2023-08-07T06:15:25;8.90;;;3.83;;
57389;SDS011;43217;52.694;6.214;2023-08-07T06:17:50;8.32;;;3.80;;
57389;SDS011;43217;52.694;6.214;2023-08-07T06:20:17;9.70;;;3.65;;
57389;SDS011;43217;52.694;6.214;2023-08-07T06:22:42;9.05;;;3.67;;
57389;SDS011;43217;52.694;6.214;2023-08-07T06:25:08;6.97;;;3.80;;
57389;SDS011;43217;52.694;6.214;2023-08-07T06:27:34;11.25;;;4.00;;
57389;SDS011;43217;52.694;6.214;2023-08-07T06:30:00;9.02;;;3.20;;
57389;SDS011;43217;52.694;6.214;2023-08-07T06:32:26;10.43;;;4.30;;
57389;SDS011;43217;52.694;6.214;2023-08-07T06:34:52;10.40;;;3.78;;
57389;SDS011;43217;52.694;6.214;2023-08-07T06:37:18;8.85;;;3.47;;
57389;SDS011;43217;52.694;6.214;2023-08-07T06:39:44;8.48;;;2.80;;
57389;SDS011;43217;52.694;6.214;2023-08-07T06:42:11;9.73;;;4.10;;
57389;SDS011;43217;52.694;6.214;2023-08-07T06:44:37;10.00;;;3.70;;
57389;SDS011;43217;52.694;6.214;2023-08-07T06:47:03;9.52;;;3.42;;
57389;SDS011;43217;52.694;6.214;2023-08-07T06:49:28;12.48;;;3.75;;
57389;SDS011;43217;52.694;6.214;2023-08-07T06:51:56;10.27;;;3.42;;
57389;SDS011;43217;52.694;6.214;2023-08-07T06:54:22;8.52;;;3.63;;
57389;SDS011;43217;52.694;6.214;2023-08-07T06:56:48;9.27;;;3.60;;
57389;SDS011;43217;52.694;6.214;2023-08-07T06:59:14;11.57;;;4.45;;
57389;SDS011;43217;52.694;6.214;2023-08-07T07:01:39;10.73;;;3.53;;
57389;SDS011;43217;52.694;6.214;2023-08-07T07:04:05;6.18;;;3.20;;
57389;SDS011;43217;52.694;6.214;2023-08-07T07:06:31;10.13;;;3.20;;
57389;SDS011;43217;52.694;6.214;2023-08-07T07:08:56;6.57;;;3.25;;
57389;SDS011;43217;52.694;6.214;2023-08-07T07:11:22;8.30;;;3.15;;
57389;SDS011;43217;52.694;6.214;2023-08-07T07:13:49;10.38;;;3.53;;
57389;SDS011;43217;52.694;6.214;2023-08-07T07:16:19;10.83;;;4.47;;
57389;SDS011;43217;52.694;6.214;2023-08-07T07:18:47;6.63;;;2.88;;
57389;SDS011;43217;52.694;6.214;2023-08-07T07:21:14;9.23;;;3.28;;
57389;SDS011;43217;52.694;6.214;2023-08-07T07:23:40;5.55;;;2.80;;
57389;SDS011;43217;52.694;6.214;2023-08-07T07:26:05;8.43;;;3.75;;
57389;SDS011;43217;52.694;6.214;2023-08-07T07:28:31;6.18;;;2.83;;
57389;SDS011;43217;52.694;6.214;2023-08-07T07:30:57;7.97;;;2.80;;
57389;SDS011;43217;52.694;6.214;2023-08-07T07:33:22;9.88;;;3.28;;
57389;SDS011;43217;52.694;6.214;2023-08-07T07:35:48;4.90;;;3.10;;
57389;SDS011;43217;52.694;6.214;2023-08-07T07:38:14;7.72;;;2.63;;
57389;SDS011;43217;52.694;6.214;2023-08-07T07:40:40;6.97;;;2.40;;
57389;SDS011;43217;52.694;6.214;2023-08-07T07:43:06;7.97;;;2.63;;
57389;SDS011;43217;52.694;6.214;2023-08-07T07:45:32;6.25;;;2.53;;
57389;SDS011;43217;52.694;6.214;2023-08-07T07:48:00;6.18;;;3.00;;
57389;SDS011;43217;52.694;6.214;2023-08-07T07:50:29;5.50;;;2.65;;
57389;SDS011;43217;52.694;6.214;2023-08-07T07:52:54;5.97;;;2.42;;
57389;SDS011;43217;52.694;6.214;2023-08-07T07:55:20;7.28;;;3.00;;
57389;SDS011;43217;52.694;6.214;2023-08-07T07:57:46;7.78;;;2.90;;
57389;SDS011;43217;52.694;6.214;2023-08-07T08:00:12;5.38;;;3.20;;
57389;SDS011;43217;52.694;6.214;2023-08-07T08:02:39;6.57;;;3.10;;
57389;SDS011;43217;52.694;6.214;2023-08-07T08:05:06;6.32;;;2.70;;
57389;SDS011;43217;52.694;6.214;2023-08-07T08:07:32;6.65;;;2.47;;
57389;SDS011;43217;52.694;6.214;2023-08-07T08:09:59;6.05;;;2.42;;
57389;SDS011;43217;52.694;6.214;2023-08-07T08:12:25;6.70;;;3.00;;
57389;SDS011;43217;52.694;6.214;2023-08-07T08:14:51;6.65;;;2.72;;
57389;SDS011;43217;52.694;6.214;2023-08-07T08:17:17;7.45;;;3.22;;
57389;SDS011;43217;52.694;6.214;2023-08-07T08:19:43;5.25;;;2.78;;
57389;SDS011;43217;52.694;6.214;2023-08-07T08:22:08;5.18;;;2.70;;
57389;SDS011;43217;52.694;6.214;2023-08-07T08:24:34;6.15;;;2.58;;
57389;SDS011;43217;52.694;6.214;2023-08-07T08:27:00;5.35;;;2.42;;
57389;SDS011;43217;52.694;6.214;2023-08-07T08:29:26;7.25;;;3.00;;
57389;SDS011;43217;52.694;6.214;2023-08-07T08:31:53;8.05;;;3.55;;
57389;SDS011;43217;52.694;6.214;2023-08-07T08:34:19;6.43;;;3.33;;
57389;SDS011;43217;52.694;6.214;2023-08-07T08:36:46;8.13;;;3.58;;
57389;SDS011;43217;52.694;6.214;2023-08-07T08:39:12;10.82;;;3.40;;
57389;SDS011;43217;52.694;6.214;2023-08-07T08:41:39;7.55;;;3.40;;
57389;SDS011;43217;52.694;6.214;2023-08-07T08:44:06;7.07;;;3.13;;
57389;SDS011;43217;52.694;6.214;2023-08-07T08:46:34;8.82;;;2.90;;
57389;SDS011;43217;52.694;6.214;2023-08-07T08:49:02;6.60;;;2.92;;
57389;SDS011;43217;52.694;6.214;2023-08-07T08:51:29;5.57;;;2.60;;
57389;SDS011;43217;52.694;6.214;2023-08-07T08:53:56;7.25;;;2.90;;
57389;SDS011;43217;52.694;6.214;2023-08-07T08:56:22;6.10;;;3.10;;
57389;SDS011;43217;52.694;6.214;2023-08-07T08:58:50;6.53;;;2.75;;
57389;SDS011;43217;52.694;6.214;2023-08-07T09:01:17;6.30;;;2.60;;
57389;SDS011;43217;52.694;6.214;2023-08-07T09:03:46;8.65;;;2.85;;
57389;SDS011;43217;52.694;6.214;2023-08-07T09:06:12;6.55;;;2.65;;
57389;SDS011;43217;52.694;6.214;2023-08-07T09:08:42;6.17;;;2.63;;
57389;SDS011;43217;52.694;6.214;2023-08-07T09:11:08;6.82;;;2.88;;
57389;SDS011;43217;52.694;6.214;2023-08-07T09:13:36;8.57;;;2.17;;
57389;SDS011;43217;52.694;6.214;2023-08-07T09:16:03;5.18;;;2.50;;
57389;SDS011;43217;52.694;6.214;2023-08-07T09:18:31;7.95;;;2.80;;
57389;SDS011;43217;52.694;6.214;2023-08-07T09:20:57;4.57;;;1.90;;
57389;SDS011;43217;52.694;6.214;2023-08-07T09:23:24;8.82;;;2.30;;
57389;SDS011;43217;52.694;6.214;2023-08-07T09:25:58;6.25;;;2.40;;
57389;SDS011;43217;52.694;6.214;2023-08-07T09:28:25;7.35;;;2.25;;
57389;SDS011;43217;52.694;6.214;2023-08-07T09:30:52;5.85;;;2.13;;
57389;SDS011;43217;52.694;6.214;2023-08-07T09:33:23;5.20;;;2.17;;
57389;SDS011;43217;52.694;6.214;2023-08-07T09:35:56;4.28;;;2.03;;
57389;SDS011;43217;52.694;6.214;2023-08-07T09:38:23;3.72;;;2.20;;
57389;SDS011;43217;52.694;6.214;2023-08-07T09:40:49;5.05;;;2.00;;
57389;SDS011;43217;52.694;6.214;2023-08-07T09:43:23;4.47;;;2.20;;
57389;SDS011;43217;52.694;6.214;2023-08-07T09:45:49;4.68;;;2.30;;
57389;SDS011;43217;52.694;6.214;2023-08-07T09:48:22;5.33;;;2.00;;
57389;SDS011;43217;52.694;6.214;2023-08-07T09:50:52;5.93;;;2.40;;
57389;SDS011;43217;52.694;6.214;2023-08-07T09:53:24;6.47;;;2.10;;
57389;SDS011;43217;52.694;6.214;2023-08-07T09:55:52;5.65;;;2.65;;
57389;SDS011;43217;52.694;6.214;2023-08-07T09:58:21;9.20;;;2.47;;
57389;SDS011;43217;52.694;6.214;2023-08-07T10:00:47;5.10;;;2.33;;
57389;SDS011;43217;52.694;6.214;2023-08-07T10:03:13;7.30;;;2.17;;
57389;SDS011;43217;52.694;6.214;2023-08-07T10:05:40;4.88;;;2.30;;
57389;SDS011;43217;52.694;6.214;2023-08-07T10:08:10;7.95;;;2.75;;
57389;SDS011;43217;52.694;6.214;2023-08-07T10:10:37;6.72;;;2.50;;
57389;SDS011;43217;52.694;6.214;2023-08-07T10:13:04;6.25;;;2.35;;
57389;SDS011;43217;52.694;6.214;2023-08-07T10:15:33;6.05;;;2.45;;
57389;SDS011;43217;52.694;6.214;2023-08-07T10:18:02;6.55;;;2.15;;
57389;SDS011;43217;52.694;6.214;2023-08-07T10:20:34;6.40;;;2.28;;
57389;SDS011;43217;52.694;6.214;2023-08-07T10:23:10;5.10;;;2.17;;
57389;SDS011;43217;52.694;6.214;2023-08-07T10:25:38;5.43;;;2.60;;
57389;SDS011;43217;52.694;6.214;2023-08-07T10:28:08;5.68;;;2.50;;
57389;SDS011;43217;52.694;6.214;2023-08-07T10:30:39;6.30;;;3.63;;
57389;SDS011;43217;52.694;6.214;2023-08-07T10:33:07;3.58;;;2.30;;
57389;SDS011;43217;52.694;6.214;2023-08-07T10:35:35;7.70;;;2.67;;
57389;SDS011;43217;52.694;6.214;2023-08-07T10:38:05;6.30;;;2.20;;
57389;SDS011;43217;52.694;6.214;2023-08-07T10:43:28;5.53;;;2.60;;
57389;SDS011;43217;52.694;6.214;2023-08-07T10:48:41;4.50;;;2.20;;
57389;SDS011;43217;52.694;6.214;2023-08-07T10:51:18;7.97;;;2.47;;
57389;SDS011;43217;52.694;6.214;2023-08-07T10:53:44;5.78;;;1.98;;
57389;SDS011;43217;52.694;6.214;2023-08-07T10:58:41;6.75;;;2.15;;
57389;SDS011;43217;52.694;6.214;2023-08-07T11:04:09;8.65;;;2.97;;
57389;SDS011;43217;52.694;6.214;2023-08-07T11:06:36;5.90;;;2.33;;
57389;SDS011;43217;52.694;6.214;2023-08-07T11:09:04;5.50;;;2.22;;
57389;SDS011;43217;52.694;6.214;2023-08-07T11:14:06;4.00;;;2.00;;
57389;SDS011;43217;52.694;6.214;2023-08-07T11:16:33;7.00;;;2.30;;
57389;SDS011;43217;52.694;6.214;2023-08-07T11:19:00;4.15;;;2.30;;
57389;SDS011;43217;52.694;6.214;2023-08-07T11:21:25;3.83;;;1.88;;
57389;SDS011;43217;52.694;6.214;2023-08-07T11:23:51;5.68;;;2.03;;
57389;SDS011;43217;52.694;6.214;2023-08-07T11:26:17;4.30;;;2.10;;
57389;SDS011;43217;52.694;6.214;2023-08-07T11:28:46;4.18;;;1.90;;
57389;SDS011;43217;52.694;6.214;2023-08-07T11:31:13;4.65;;;1.95;;
57389;SDS011;43217;52.694;6.214;2023-08-07T11:33:39;4.55;;;1.90;;
57389;SDS011;43217;52.694;6.214;2023-08-07T11:36:12;4.53;;;2.03;;
57389;SDS011;43217;52.694;6.214;2023-08-07T11:38:40;6.07;;;2.35;;
57389;SDS011;43217;52.694;6.214;2023-08-07T11:41:11;4.50;;;1.95;;
57389;SDS011;43217;52.694;6.214;2023-08-07T11:43:39;7.20;;;2.00;;
57389;SDS011;43217;52.694;6.214;2023-08-07T11:46:08;3.55;;;2.05;;
57389;SDS011;43217;52.694;6.214;2023-08-07T11:48:36;4.55;;;1.80;;
57389;SDS011;43217;52.694;6.214;2023-08-07T11:51:03;4.18;;;1.75;;
57389;SDS011;43217;52.694;6.214;2023-08-07T11:53:30;4.13;;;1.92;;
57389;SDS011;43217;52.694;6.214;2023-08-07T11:56:01;3.80;;;1.83;;
57389;SDS011;43217;52.694;6.214;2023-08-07T11:58:35;4.43;;;1.60;;
57389;SDS011;43217;52.694;6.214;2023-08-07T12:06:33;3.42;;;1.70;;
57389;SDS011;43217;52.694;6.214;2023-08-07T12:09:04;4.32;;;1.90;;
57389;SDS011;43217;52.694;6.214;2023-08-07T12:11:33;2.90;;;1.65;;
57389;SDS011;43217;52.694;6.214;2023-08-07T12:14:00;3.08;;;1.58;;
57389;SDS011;43217;52.694;6.214;2023-08-07T12:16:32;5.63;;;2.00;;
57389;SDS011;43217;52.694;6.214;2023-08-07T12:18:59;4.88;;;2.40;;
57389;SDS011;43217;52.694;6.214;2023-08-07T12:21:25;4.30;;;2.35;;
57389;SDS011;43217;52.694;6.214;2023-08-07T12:23:55;3.88;;;1.83;;
57389;SDS011;43217;52.694;6.214;2023-08-07T12:26:22;3.70;;;2.28;;
57389;SDS011;43217;52.694;6.214;2023-08-07T12:28:48;3.92;;;1.83;;
57389;SDS011;43217;52.694;6.214;2023-08-07T12:31:15;3.15;;;1.60;;
57389;SDS011;43217;52.694;6.214;2023-08-07T12:33:42;4.75;;;1.90;;
57389;SDS011;43217;52.694;6.214;2023-08-07T12:36:08;2.97;;;1.80;;
57389;SDS011;43217;52.694;6.214;2023-08-07T12:38:33;4.90;;;2.22;;
57389;SDS011;43217;52.694;6.214;2023-08-07T12:40:59;5.85;;;2.65;;
57389;SDS011;43217;52.694;6.214;2023-08-07T12:43:25;4.30;;;1.95;;
57389;SDS011;43217;52.694;6.214;2023-08-07T12:45:51;3.35;;;2.13;;
57389;SDS011;43217;52.694;6.214;2023-08-07T12:48:19;5.82;;;2.30;;
57389;SDS011;43217;52.694;6.214;2023-08-07T12:50:44;4.13;;;2.10;;
57389;SDS011;43217;52.694;6.214;2023-08-07T12:53:10;8.25;;;2.83;;
57389;SDS011;43217;52.694;6.214;2023-08-07T12:55:36;5.53;;;2.25;;
57389;SDS011;43217;52.694;6.214;2023-08-07T12:58:01;7.65;;;2.90;;
57389;SDS011;43217;52.694;6.214;2023-08-07T13:00:27;5.75;;;2.47;;
57389;SDS011;43217;52.694;6.214;2023-08-07T13:02:53;5.50;;;2.63;;
57389;SDS011;43217;52.694;6.214;2023-08-07T13:05:21;4.65;;;1.90;;
57389;SDS011;43217;52.694;6.214;2023-08-07T13:07:47;4.32;;;1.70;;
57389;SDS011;43217;52.694;6.214;2023-08-07T13:10:14;3.63;;;2.20;;
57389;SDS011;43217;52.694;6.214;2023-08-07T13:15:09;2.47;;;2.08;;
57389;SDS011;43217;52.694;6.214;2023-08-07T13:17:40;4.78;;;2.13;;
57389;SDS011;43217;52.694;6.214;2023-08-07T13:20:07;7.00;;;2.17;;
57389;SDS011;43217;52.694;6.214;2023-08-07T13:25:03;4.65;;;2.50;;
57389;SDS011;43217;52.694;6.214;2023-08-07T13:27:30;4.82;;;2.53;;
57389;SDS011;43217;52.694;6.214;2023-08-07T13:29:59;5.68;;;2.80;;
57389;SDS011;43217;52.694;6.214;2023-08-07T13:32:28;4.13;;;2.70;;
57389;SDS011;43217;52.694;6.214;2023-08-07T13:34:54;5.43;;;2.90;;
57389;SDS011;43217;52.694;6.214;2023-08-07T13:37:20;3.22;;;2.42;;
57389;SDS011;43217;52.694;6.214;2023-08-07T13:39:46;4.30;;;2.67;;
57389;SDS011;43217;52.694;6.214;2023-08-07T13:42:17;5.53;;;2.67;;
57389;SDS011;43217;52.694;6.214;2023-08-07T13:44:43;4.75;;;2.75;;
57389;SDS011;43217;52.694;6.214;2023-08-07T13:47:09;5.70;;;2.65;;
57389;SDS011;43217;52.694;6.214;2023-08-07T13:49:36;6.40;;;3.10;;
57389;SDS011;43217;52.694;6.214;2023-08-07T13:52:02;4.88;;;2.45;;
57389;SDS011;43217;52.694;6.214;2023-08-07T13:54:28;8.88;;;3.55;;
57389;SDS011;43217;52.694;6.214;2023-08-07T13:56:54;7.63;;;3.67;;
57389;SDS011;43217;52.694;6.214;2023-08-07T13:59:24;3.97;;;2.80;;
57389;SDS011;43217;52.694;6.214;2023-08-07T14:01:49;6.38;;;3.33;;
57389;SDS011;43217;52.694;6.214;2023-08-07T14:04:15;6.65;;;2.45;;
57389;SDS011;43217;52.694;6.214;2023-08-07T14:06:41;5.15;;;3.17;;
57389;SDS011;43217;52.694;6.214;2023-08-07T14:09:08;4.72;;;2.70;;
57389;SDS011;43217;52.694;6.214;2023-08-07T14:11:34;4.93;;;2.63;;
57389;SDS011;43217;52.694;6.214;2023-08-07T14:14:00;4.57;;;2.60;;
57389;SDS011;43217;52.694;6.214;2023-08-07T14:16:26;5.40;;;3.00;;
57389;SDS011;43217;52.694;6.214;2023-08-07T14:18:52;6.88;;;2.65;;
57389;SDS011;43217;52.694;6.214;2023-08-07T14:21:18;5.18;;;2.55;;
57389;SDS011;43217;52.694;6.214;2023-08-07T14:23:44;4.82;;;3.00;;
57389;SDS011;43217;52.694;6.214;2023-08-07T14:26:13;4.67;;;2.73;;
57389;SDS011;43217;52.694;6.214;2023-08-07T14:28:39;7.57;;;2.60;;
57389;SDS011;43217;52.694;6.214;2023-08-07T14:31:08;6.97;;;2.75;;
57389;SDS011;43217;52.694;6.214;2023-08-07T14:33:35;4.43;;;2.50;;
57389;SDS011;43217;52.694;6.214;2023-08-07T14:36:01;5.15;;;2.33;;
57389;SDS011;43217;52.694;6.214;2023-08-07T14:38:28;4.30;;;2.63;;
57389;SDS011;43217;52.694;6.214;2023-08-07T14:40:54;3.63;;;2.15;;
57389;SDS011;43217;52.694;6.214;2023-08-07T14:43:32;4.70;;;2.47;;
57389;SDS011;43217;52.694;6.214;2023-08-07T14:45:58;5.03;;;2.10;;
57389;SDS011;43217;52.694;6.214;2023-08-07T14:48:25;3.38;;;2.08;;
57389;SDS011;43217;52.694;6.214;2023-08-07T14:50:51;5.05;;;2.20;;
57389;SDS011;43217;52.694;6.214;2023-08-07T14:53:16;6.63;;;2.20;;
57389;SDS011;43217;52.694;6.214;2023-08-07T14:55:43;3.70;;;2.28;;
57389;SDS011;43217;52.694;6.214;2023-08-07T14:58:10;3.65;;;1.80;;
57389;SDS011;43217;52.694;6.214;2023-08-07T15:00:35;4.05;;;2.35;;
57389;SDS011;43217;52.694;6.214;2023-08-07T15:03:01;4.18;;;2.05;;
57389;SDS011;43217;52.694;6.214;2023-08-07T15:05:27;4.55;;;1.90;;
57389;SDS011;43217;52.694;6.214;2023-08-07T15:07:53;3.83;;;2.20;;
57389;SDS011;43217;52.694;6.214;2023-08-07T15:10:19;4.15;;;1.98;;
57389;SDS011;43217;52.694;6.214;2023-08-07T15:12:46;3.75;;;2.08;;
57389;SDS011;43217;52.694;6.214;2023-08-07T15:15:12;3.33;;;1.92;;
57389;SDS011;43217;52.694;6.214;2023-08-07T15:17:38;3.00;;;1.80;;